createdAt,value
2022-09-28T00:00:36.843Z,49.85
2022-09-28T00:03:03.249Z,49.85
2022-09-28T00:05:29.526Z,49.64
2022-09-28T00:07:55.891Z,49.79
2022-09-28T00:10:22.228Z,49.79
2022-09-28T00:12:48.577Z,49.96
2022-09-28T00:15:14.913Z,49.96
2022-09-28T00:17:41.257Z,49.61
2022-09-28T00:20:07.626Z,49.49
2022-09-28T00:22:33.976Z,49.56
2022-09-28T00:25:00.314Z,49.70
2022-09-28T00:27:26.678Z,49.70
2022-09-28T00:29:53.011Z,49.53
2022-09-28T00:32:19.426Z,49.37
2022-09-28T00:34:45.773Z,49.53
2022-09-28T00:37:12.104Z,50.11
2022-09-28T00:39:38.474Z,50.11
2022-09-28T00:42:04.820Z,49.44
2022-09-28T00:44:31.164Z,49.44
2022-09-28T00:46:57.544Z,49.52
2022-09-28T00:49:23.887Z,49.11
2022-09-28T00:51:50.227Z,49.38
2022-09-28T00:54:16.590Z,49.38
2022-09-28T00:56:42.929Z,49.45
2022-09-28T00:59:09.358Z,49.41
2022-09-28T01:01:35.654Z,49.46
2022-09-28T01:04:01.992Z,49.46
2022-09-28T01:06:28.344Z,49.40
2022-09-28T01:08:54.692Z,49.35
2022-09-28T01:11:21.037Z,49.43
2022-09-28T01:13:47.437Z,49.41
2022-09-28T01:16:13.859Z,49.76
2022-09-28T01:18:40.123Z,49.34
2022-09-28T01:21:06.471Z,49.06
2022-09-28T01:23:32.803Z,49.06
2022-09-28T01:25:59.140Z,49.38
2022-09-28T01:28:25.492Z,49.41
2022-09-28T01:30:51.843Z,49.41
2022-09-28T01:33:18.184Z,49.28
2022-09-28T01:35:44.557Z,49.26
2022-09-28T01:38:10.926Z,49.22
2022-09-28T01:40:37.326Z,49.15
2022-09-28T01:43:03.600Z,49.25
2022-09-28T01:45:29.950Z,49.24
2022-09-28T01:47:56.282Z,49.15
2022-09-28T01:50:22.635Z,49.03
2022-09-28T01:52:48.970Z,49.45
2022-09-28T01:55:15.308Z,49.45
2022-09-28T01:57:41.646Z,49.12
2022-09-28T02:00:07.990Z,49.10
2022-09-28T02:02:34.407Z,49.00
2022-09-28T02:05:02.688Z,49.04
2022-09-28T02:07:27.025Z,48.37
2022-09-28T02:09:53.366Z,48.37
2022-09-28T02:12:19.731Z,48.25
2022-09-28T02:14:46.075Z,48.20
2022-09-28T02:17:12.422Z,48.20
2022-09-28T02:19:38.760Z,47.83
2022-09-28T02:22:05.101Z,47.77
2022-09-28T02:24:31.488Z,47.73
2022-09-28T02:26:57.822Z,47.75
2022-09-28T02:29:24.162Z,47.62
2022-09-28T02:31:50.541Z,47.55
2022-09-28T02:34:19.255Z,47.46
2022-09-28T02:36:45.593Z,47.43
2022-09-28T02:39:11.926Z,47.56
2022-09-28T02:41:38.275Z,47.56
2022-09-28T02:44:04.615Z,47.39
2022-09-28T02:49:21.341Z,47.16
2022-09-28T02:51:36.197Z,47.12
2022-09-28T02:54:02.527Z,47.24
2022-09-28T02:56:28.879Z,47.24
2022-09-28T02:58:55.219Z,46.58
2022-09-28T03:01:21.598Z,46.70
2022-09-28T03:03:47.897Z,46.70
2022-09-28T03:06:14.243Z,46.82
2022-09-28T03:08:40.611Z,46.76
2022-09-28T03:11:06.952Z,46.75
2022-09-28T03:13:33.296Z,46.68
2022-09-28T03:15:59.689Z,46.75
2022-09-28T03:18:25.978Z,46.75
2022-09-28T03:20:52.328Z,46.59
2022-09-28T03:23:25.845Z,46.58
2022-09-28T03:25:45.048Z,46.55
2022-09-28T03:28:11.344Z,46.47
2022-09-28T03:30:37.696Z,46.17
2022-09-28T03:33:04.039Z,46.17
2022-09-28T03:35:30.392Z,46.28
2022-09-28T03:37:56.817Z,46.24
2022-09-28T03:40:23.155Z,46.11
2022-09-28T03:42:49.416Z,46.11
2022-09-28T03:45:15.760Z,46.10
2022-09-28T03:47:42.093Z,46.10
2022-09-28T03:50:08.433Z,46.23
2022-09-28T03:52:34.773Z,46.23
2022-09-28T03:55:01.108Z,45.96
2022-09-28T03:57:27.450Z,45.86
2022-09-28T03:59:53.799Z,45.93
2022-09-28T04:02:20.170Z,45.82
2022-09-28T04:04:46.470Z,45.97
2022-09-28T04:07:12.809Z,45.97
2022-09-28T04:09:39.146Z,45.72
2022-09-28T04:12:05.493Z,45.64
2022-09-28T04:14:31.834Z,47.17
2022-09-28T04:16:58.173Z,47.17
2022-09-28T04:19:24.517Z,46.06
2022-09-28T04:21:50.859Z,45.97
2022-09-28T04:24:17.202Z,45.84
2022-09-28T04:26:43.541Z,45.90
2022-09-28T04:29:09.891Z,45.88
2022-09-28T04:31:36.274Z,45.76
2022-09-28T04:34:02.572Z,45.67
2022-09-28T04:36:28.917Z,45.67
2022-09-28T04:38:55.262Z,45.42
2022-09-28T04:41:21.597Z,45.42
2022-09-28T04:43:47.947Z,45.53
2022-09-28T04:46:14.311Z,45.49
2022-09-28T04:48:40.622Z,45.54
2022-09-28T04:51:06.953Z,45.66
2022-09-28T04:53:33.296Z,45.25
2022-09-28T04:55:59.628Z,45.23
2022-09-28T04:58:25.982Z,45.23
2022-09-28T05:00:52.357Z,46.00
2022-09-28T05:03:18.663Z,46.00
2022-09-28T05:05:44.996Z,45.63
2022-09-28T05:08:11.336Z,45.63
2022-09-28T05:10:37.795Z,45.32
2022-09-28T05:13:04.146Z,45.30
2022-09-28T05:15:30.472Z,45.33
2022-09-28T05:17:56.842Z,45.17
2022-09-28T05:20:23.187Z,45.17
2022-09-28T05:22:49.535Z,45.17
2022-09-28T05:25:15.872Z,45.07
2022-09-28T05:27:42.217Z,45.26
2022-09-28T05:30:08.545Z,45.26
2022-09-28T05:32:34.920Z,44.98
2022-09-28T05:35:01.264Z,44.68
2022-09-28T05:37:27.629Z,44.95
2022-09-28T05:39:53.983Z,45.07
2022-09-28T05:42:20.353Z,44.84
2022-09-28T05:44:46.696Z,44.84
2022-09-28T05:47:13.032Z,44.80
2022-09-28T05:49:39.364Z,44.80
2022-09-28T05:52:05.697Z,45.03
2022-09-28T05:54:32.048Z,44.78
2022-09-28T05:56:58.371Z,44.78
2022-09-28T05:59:24.712Z,45.02
2022-09-28T06:01:52.000Z,45.02
2022-09-28T06:04:17.670Z,44.78
2022-09-28T06:06:43.839Z,44.61
2022-09-28T06:09:10.177Z,44.61
2022-09-28T06:11:36.528Z,45.56
2022-09-28T06:14:02.877Z,44.87
2022-09-28T06:16:29.262Z,44.56
2022-09-28T06:18:55.547Z,44.75
2022-09-28T06:21:21.879Z,44.61
2022-09-28T06:23:49.418Z,44.46
2022-09-28T06:26:14.619Z,44.78
2022-09-28T06:28:40.985Z,44.77
2022-09-28T06:31:07.404Z,44.35
2022-09-28T06:33:33.650Z,44.47
2022-09-28T06:36:00.006Z,44.47
2022-09-28T06:38:26.411Z,44.68
2022-09-28T06:40:52.788Z,44.93
2022-09-28T06:43:19.097Z,45.28
2022-09-28T06:45:45.466Z,44.72
2022-09-28T06:48:11.798Z,44.42
2022-09-28T06:50:38.132Z,44.71
2022-09-28T06:53:04.543Z,44.57
2022-09-28T06:55:32.077Z,44.54
2022-09-28T06:57:57.258Z,44.54
2022-09-28T07:00:23.591Z,44.39
2022-09-28T07:02:49.980Z,44.70
2022-09-28T07:05:16.316Z,44.70
2022-09-28T07:07:42.667Z,44.29
2022-09-28T07:10:09.014Z,44.37
2022-09-28T07:12:35.363Z,44.35
2022-09-28T07:15:01.717Z,44.41
2022-09-28T07:17:28.129Z,44.58
2022-09-28T07:19:54.431Z,44.57
2022-09-28T07:22:31.775Z,44.63
2022-09-28T07:24:47.151Z,44.65
2022-09-28T07:27:13.505Z,44.67
2022-09-28T07:29:39.851Z,44.69
2022-09-28T07:32:06.194Z,44.72
2022-09-28T07:34:32.529Z,45.13
2022-09-28T07:36:58.926Z,44.97
2022-09-28T07:39:25.270Z,45.02
2022-09-28T07:41:54.390Z,45.09
2022-09-28T07:44:18.022Z,45.09
2022-09-28T07:46:44.316Z,45.09
2022-09-28T07:49:12.440Z,45.24
2022-09-28T07:51:38.269Z,45.25
2022-09-28T07:54:03.399Z,45.24
2022-09-28T07:56:29.753Z,45.41
2022-09-28T07:58:56.092Z,45.21
2022-09-28T08:01:24.462Z,45.52
2022-09-28T08:03:48.796Z,45.52
2022-09-28T08:06:15.140Z,45.06
2022-09-28T08:08:41.513Z,45.42
2022-09-28T08:11:07.869Z,45.27
2022-09-28T08:13:34.213Z,44.61
2022-09-28T08:16:00.556Z,44.77
2022-09-28T08:18:26.893Z,44.74
2022-09-28T08:20:53.250Z,44.74
2022-09-28T08:23:19.579Z,44.00
2022-09-28T08:25:45.919Z,44.67
2022-09-28T08:28:12.266Z,44.28
2022-09-28T08:30:38.712Z,44.49
2022-09-28T08:33:04.982Z,44.95
2022-09-28T08:35:31.326Z,44.40
2022-09-28T08:37:57.671Z,42.28
2022-09-28T08:40:24.071Z,41.32
2022-09-28T08:42:50.393Z,40.84
2022-09-28T08:45:16.741Z,40.84
2022-09-28T08:47:43.071Z,40.35
2022-09-28T08:50:09.515Z,40.32
2022-09-28T08:52:35.790Z,40.39
2022-09-28T08:55:02.150Z,40.36
2022-09-28T08:57:28.482Z,40.49
2022-09-28T08:59:54.826Z,40.30
2022-09-28T09:02:21.249Z,40.26
2022-09-28T09:04:47.507Z,40.30
2022-09-28T09:07:13.842Z,40.29
2022-09-28T09:09:40.193Z,40.30
2022-09-28T09:12:06.530Z,40.33
2022-09-28T09:14:32.882Z,40.18
2022-09-28T09:17:00.549Z,40.41
2022-09-28T09:19:25.611Z,40.43
2022-09-28T09:21:51.958Z,39.94
2022-09-28T09:24:18.361Z,39.81
2022-09-28T09:26:44.661Z,40.07
2022-09-28T09:29:11.043Z,39.81
2022-09-28T09:31:37.381Z,39.72
2022-09-28T09:34:03.741Z,39.99
2022-09-28T09:36:30.082Z,39.85
2022-09-28T09:38:56.444Z,39.60
2022-09-28T09:41:22.793Z,39.73
2022-09-28T09:43:49.133Z,39.43
2022-09-28T09:46:15.497Z,39.78
2022-09-28T09:48:41.823Z,39.46
2022-09-28T09:51:08.157Z,39.53
2022-09-28T09:53:37.705Z,39.51
2022-09-28T09:56:00.833Z,39.19
2022-09-28T09:58:27.181Z,39.25
2022-09-28T10:00:53.560Z,39.14
2022-09-28T10:03:19.862Z,39.10
2022-09-28T10:05:46.242Z,39.05
2022-09-28T10:08:12.608Z,39.02
2022-09-28T10:10:38.971Z,39.18
2022-09-28T10:13:05.319Z,39.14
2022-09-28T10:15:31.652Z,39.25
2022-09-28T10:17:59.020Z,39.20
2022-09-28T10:20:25.712Z,39.30
2022-09-28T10:22:50.728Z,39.46
2022-09-28T10:25:17.111Z,39.26
2022-09-28T10:27:43.492Z,39.47
2022-09-28T10:30:09.835Z,39.22
2022-09-28T10:32:36.192Z,39.17
2022-09-28T10:35:02.535Z,39.10
2022-09-28T10:37:28.956Z,39.15
2022-09-28T10:39:55.300Z,39.21
2022-09-28T10:42:21.726Z,39.17
2022-09-28T10:44:48.037Z,39.08
2022-09-28T10:47:14.381Z,38.99
2022-09-28T10:49:45.875Z,38.95
2022-09-28T10:52:07.070Z,39.05
2022-09-28T10:54:33.420Z,38.94
2022-09-28T10:56:59.782Z,38.83
2022-09-28T10:59:26.116Z,38.81
2022-09-28T11:01:52.505Z,38.89
2022-09-28T11:04:19.012Z,38.56
2022-09-28T11:06:45.367Z,38.37
2022-09-28T11:09:11.600Z,38.27
2022-09-28T11:11:37.941Z,38.25
2022-09-28T11:14:04.295Z,38.17
2022-09-28T11:16:30.703Z,38.14
2022-09-28T11:18:56.989Z,38.05
2022-09-28T11:21:23.331Z,38.01
2022-09-28T11:23:49.709Z,38.18
2022-09-28T11:26:18.605Z,38.09
2022-09-28T11:28:42.455Z,38.02
2022-09-28T11:31:08.895Z,37.84
2022-09-28T11:33:35.203Z,37.86
2022-09-28T11:36:01.550Z,37.78
2022-09-28T11:38:27.884Z,37.68
2022-09-28T11:40:54.385Z,37.64
2022-09-28T11:43:20.597Z,37.54
2022-09-28T11:45:46.971Z,37.59
2022-09-28T11:48:13.307Z,37.48
2022-09-28T11:50:39.667Z,37.59
2022-09-28T11:53:06.018Z,37.46
2022-09-28T11:55:32.372Z,37.55
2022-09-28T11:57:58.761Z,37.42
2022-09-28T12:00:25.120Z,37.35
2022-09-28T12:02:51.655Z,37.40
2022-09-28T12:05:20.847Z,37.32
2022-09-28T12:07:44.211Z,37.26
2022-09-28T12:10:10.558Z,37.07
2022-09-28T12:12:36.915Z,37.16
2022-09-28T12:15:03.286Z,37.13
2022-09-28T12:17:29.661Z,37.11
2022-09-28T12:19:55.985Z,37.15
2022-09-28T12:22:22.342Z,37.06
2022-09-28T12:24:48.719Z,36.96
2022-09-28T12:27:15.061Z,37.04
2022-09-28T12:29:41.410Z,36.91
2022-09-28T12:32:07.757Z,36.86
2022-09-28T12:34:34.105Z,36.77
2022-09-28T12:37:00.446Z,36.70
2022-09-28T12:39:40.953Z,36.55
2022-09-28T12:41:53.139Z,36.61
2022-09-28T12:44:19.497Z,36.68
2022-09-28T12:46:45.980Z,36.58
2022-09-28T12:51:38.590Z,36.62
2022-09-28T12:54:05.072Z,36.53
2022-09-28T12:56:31.499Z,36.57
2022-09-28T12:58:57.857Z,36.49
2022-09-28T13:01:24.250Z,36.47
2022-09-28T13:03:50.554Z,36.39
2022-09-28T13:06:16.894Z,36.36
2022-09-28T13:08:43.239Z,36.32
2022-09-28T13:11:09.586Z,36.38
2022-09-28T13:13:35.943Z,36.22
2022-09-28T13:16:02.332Z,36.18
2022-09-28T13:18:28.644Z,36.15
2022-09-28T13:20:56.417Z,36.05
2022-09-28T13:23:21.336Z,36.08
2022-09-28T13:25:47.674Z,35.98
2022-09-28T13:28:14.046Z,35.96
2022-09-28T13:30:42.220Z,35.89
2022-09-28T13:33:06.756Z,35.89
2022-09-28T13:35:33.095Z,35.88
2022-09-28T13:37:59.432Z,35.67
2022-09-28T13:40:25.802Z,35.50
2022-09-28T13:42:52.211Z,35.36
2022-09-28T13:45:18.554Z,35.32
2022-09-28T13:47:44.893Z,35.42
2022-09-28T13:50:11.377Z,35.47
2022-09-28T13:52:37.621Z,35.34
2022-09-28T13:55:03.956Z,35.16
2022-09-28T13:57:30.311Z,34.97
2022-09-28T13:59:56.655Z,35.02
2022-09-28T14:02:23.034Z,35.05
2022-09-28T14:04:49.348Z,35.02
2022-09-28T14:07:15.780Z,34.99
2022-09-28T14:09:42.077Z,34.99
2022-09-28T14:12:08.435Z,34.85
2022-09-28T14:14:34.776Z,34.86
2022-09-28T14:17:01.120Z,34.90
2022-09-28T14:19:27.459Z,34.85
2022-09-28T14:21:53.821Z,34.85
2022-09-28T14:24:20.143Z,34.96
2022-09-28T14:26:46.498Z,34.85
2022-09-28T14:29:12.871Z,34.94
2022-09-28T14:31:40.422Z,34.77
2022-09-28T14:34:05.562Z,34.94
2022-09-28T14:36:31.944Z,34.89
2022-09-28T14:38:58.281Z,34.93
2022-09-28T14:41:24.630Z,34.94
2022-09-28T14:43:50.966Z,35.17
2022-09-28T14:46:17.460Z,35.17
2022-09-28T14:48:43.711Z,35.32
2022-09-28T14:51:10.053Z,35.34
2022-09-28T14:53:36.407Z,35.43
2022-09-28T14:56:02.768Z,35.46
2022-09-28T14:58:29.099Z,35.47
2022-09-28T15:00:55.447Z,35.47
2022-09-28T15:03:21.794Z,35.38
2022-09-28T15:05:48.207Z,35.30
2022-09-28T15:08:14.550Z,35.25
2022-09-28T15:10:40.889Z,35.05
2022-09-28T15:13:07.225Z,35.11
2022-09-28T15:15:33.631Z,35.11
2022-09-28T15:17:59.943Z,35.16
2022-09-28T15:20:26.290Z,35.12
2022-09-28T15:22:52.640Z,35.20
2022-09-28T15:25:18.979Z,35.12
2022-09-28T15:27:45.310Z,35.12
2022-09-28T15:30:11.654Z,35.13
2022-09-28T15:32:37.988Z,35.13
2022-09-28T15:35:04.336Z,35.09
2022-09-28T15:37:30.672Z,35.11
2022-09-28T15:39:57.031Z,35.00
2022-09-28T15:42:24.379Z,35.02
2022-09-28T15:44:49.717Z,35.01
2022-09-28T15:47:16.057Z,34.93
2022-09-28T15:49:42.402Z,34.98
2022-09-28T15:52:08.737Z,34.92
2022-09-28T15:54:35.085Z,34.95
2022-09-28T15:57:01.464Z,34.92
2022-09-28T15:59:27.987Z,34.86
2022-09-28T16:01:54.374Z,34.86
2022-09-28T16:04:20.705Z,34.84
2022-09-28T16:06:47.037Z,34.79
2022-09-28T16:09:13.380Z,34.80
2022-09-28T16:11:39.718Z,34.79
2022-09-28T16:14:06.114Z,34.79
2022-09-28T16:16:32.416Z,34.80
2022-09-28T16:18:58.753Z,34.78
2022-09-28T16:21:25.139Z,34.67
2022-09-28T16:23:51.474Z,34.74
2022-09-28T16:26:17.819Z,34.77
2022-09-28T16:28:44.152Z,34.80
2022-09-28T16:31:10.563Z,34.80
2022-09-28T16:33:36.858Z,34.67
2022-09-28T16:36:03.227Z,34.72
2022-09-28T16:38:29.558Z,34.72
2022-09-28T16:40:55.956Z,34.74
2022-09-28T16:43:22.272Z,34.73
2022-09-28T16:45:48.628Z,34.71
2022-09-28T16:48:14.965Z,34.62
2022-09-28T16:50:41.311Z,34.65
2022-09-28T16:53:07.657Z,34.66
2022-09-28T16:55:40.412Z,34.58
2022-09-28T16:58:00.389Z,34.61
2022-09-28T17:00:26.740Z,34.60
2022-09-28T17:02:53.098Z,34.61
2022-09-28T17:05:19.413Z,34.62
2022-09-28T17:07:45.754Z,34.60
2022-09-28T17:10:12.108Z,34.56
2022-09-28T17:12:38.479Z,34.43
2022-09-28T17:15:04.817Z,34.50
2022-09-28T17:17:31.193Z,34.45
2022-09-28T17:19:57.549Z,34.42
2022-09-28T17:22:23.874Z,34.47
2022-09-28T17:24:50.218Z,34.39
2022-09-28T17:27:16.583Z,34.38
2022-09-28T17:29:42.924Z,34.34
2022-09-28T17:32:09.255Z,34.34
2022-09-28T17:34:35.619Z,34.28
2022-09-28T17:37:01.956Z,34.28
2022-09-28T17:39:28.304Z,34.25
2022-09-28T17:41:54.636Z,34.18
2022-09-28T17:44:21.153Z,34.32
2022-09-28T17:46:47.545Z,34.19
2022-09-28T17:49:13.687Z,34.19
2022-09-28T17:51:40.015Z,34.14
2022-09-28T17:54:06.362Z,34.18
2022-09-28T17:56:32.817Z,34.16
2022-09-28T17:58:59.061Z,34.13
2022-09-28T18:01:25.496Z,34.17
2022-09-28T18:03:51.748Z,34.17
2022-09-28T18:06:18.082Z,34.16
2022-09-28T18:08:44.463Z,34.19
2022-09-28T18:11:10.802Z,34.23
2022-09-28T18:13:37.211Z,34.31
2022-09-28T18:16:04.897Z,34.33
2022-09-28T18:18:29.889Z,34.29
2022-09-28T18:20:56.228Z,34.31
2022-09-28T18:23:22.573Z,34.26
2022-09-28T18:25:48.913Z,34.31
2022-09-28T18:28:15.254Z,34.28
2022-09-28T18:30:41.637Z,34.37
2022-09-28T18:33:07.933Z,34.36
2022-09-28T18:35:34.264Z,34.40
2022-09-28T18:38:00.656Z,34.43
2022-09-28T18:40:27.039Z,34.47
2022-09-28T18:42:53.344Z,34.49
2022-09-28T18:45:19.684Z,34.49
2022-09-28T18:47:46.027Z,34.53
2022-09-28T18:50:12.370Z,34.55
2022-09-28T18:52:38.712Z,34.56
2022-09-28T18:55:05.046Z,34.53
2022-09-28T18:57:31.393Z,34.58
2022-09-28T18:59:57.728Z,34.56
2022-09-28T19:02:24.148Z,34.63
2022-09-28T19:04:50.400Z,34.61
2022-09-28T19:07:16.836Z,34.67
2022-09-28T19:09:43.166Z,34.67
2022-09-28T19:12:09.509Z,34.66
2022-09-28T19:14:35.853Z,34.62
2022-09-28T19:17:02.228Z,34.65
2022-09-28T19:19:28.569Z,34.66
2022-09-28T19:21:54.945Z,34.65
2022-09-28T19:24:21.249Z,34.67
2022-09-28T19:26:47.587Z,34.69
2022-09-28T19:29:13.934Z,34.71
2022-09-28T19:31:40.272Z,34.76
2022-09-28T19:34:08.236Z,34.72
2022-09-28T19:36:32.949Z,34.74
2022-09-28T19:38:59.279Z,34.74
2022-09-28T19:41:25.674Z,34.73
2022-09-28T19:43:52.016Z,34.74
2022-09-28T19:46:18.413Z,34.76
2022-09-28T19:48:44.701Z,34.71
2022-09-28T19:51:11.048Z,34.78
2022-09-28T19:53:37.384Z,34.80
2022-09-28T19:56:03.728Z,34.78
2022-09-28T19:58:30.072Z,34.78
2022-09-28T20:00:56.421Z,34.87
2022-09-28T20:03:22.754Z,34.85
2022-09-28T20:05:49.101Z,34.83
2022-09-28T20:08:15.445Z,34.88
2022-09-28T20:10:41.783Z,34.94
2022-09-28T20:13:08.117Z,34.94
2022-09-28T20:15:34.493Z,34.89
2022-09-28T20:18:00.846Z,35.00
2022-09-28T20:20:27.187Z,35.10
2022-09-28T20:22:53.520Z,35.16
2022-09-28T20:25:19.856Z,35.16
2022-09-28T20:27:46.192Z,35.25
2022-09-28T20:30:12.530Z,35.15
2022-09-28T20:32:38.868Z,35.25
2022-09-28T20:35:05.205Z,35.18
2022-09-28T20:37:31.551Z,35.19
2022-09-28T20:39:57.888Z,35.15
2022-09-28T20:42:24.319Z,35.23
2022-09-28T20:44:50.694Z,35.17
2022-09-28T20:47:17.027Z,35.18
2022-09-28T20:49:43.364Z,35.20
2022-09-28T20:52:09.701Z,35.17
2022-09-28T20:54:36.047Z,35.21
2022-09-28T20:57:02.377Z,35.22
2022-09-28T20:59:29.685Z,35.24
2022-09-28T21:01:55.158Z,35.22
2022-09-28T21:04:21.526Z,35.16
2022-09-28T21:06:47.788Z,35.13
2022-09-28T21:09:14.132Z,35.15
2022-09-28T21:11:40.484Z,35.17
2022-09-28T21:14:06.822Z,35.12
2022-09-28T21:16:33.154Z,35.16
2022-09-28T21:18:59.506Z,35.15
2022-09-28T21:21:25.833Z,35.16
2022-09-28T21:23:52.169Z,35.16
2022-09-28T21:26:18.507Z,35.19
2022-09-28T21:28:44.856Z,35.12
2022-09-28T21:31:11.243Z,35.09
2022-09-28T21:33:37.541Z,35.17
2022-09-28T21:36:03.879Z,35.17
2022-09-28T21:38:30.218Z,35.25
2022-09-28T21:40:56.610Z,35.27
2022-09-28T21:43:22.895Z,35.23
2022-09-28T21:45:49.235Z,35.26
2022-09-28T21:48:15.583Z,35.20
2022-09-28T21:50:41.936Z,35.27
2022-09-28T21:53:08.277Z,35.21
2022-09-28T21:55:34.630Z,35.25
2022-09-28T21:58:00.974Z,35.28
2022-09-28T22:00:27.324Z,35.31
2022-09-28T22:02:53.703Z,35.24
2022-09-28T22:05:19.988Z,35.33
2022-09-28T22:07:46.334Z,35.33
2022-09-28T22:10:12.677Z,35.29
2022-09-28T22:12:39.015Z,35.32
2022-09-28T22:15:05.344Z,35.33
2022-09-28T22:17:31.727Z,35.34
2022-09-28T22:19:59.014Z,35.35
2022-09-28T22:22:28.395Z,35.36
2022-09-28T22:24:50.740Z,35.41
2022-09-28T22:27:17.082Z,35.45
2022-09-28T22:29:43.418Z,35.42
2022-09-28T22:32:09.766Z,35.40
2022-09-28T22:34:36.096Z,35.42
2022-09-28T22:37:02.451Z,35.38
2022-09-28T22:39:28.794Z,35.40
2022-09-28T22:41:55.136Z,35.41
2022-09-28T22:44:21.475Z,35.42
2022-09-28T22:46:47.888Z,35.38
2022-09-28T22:49:14.160Z,35.44
2022-09-28T22:51:40.495Z,35.46
2022-09-28T22:54:06.856Z,35.48
2022-09-28T22:56:33.200Z,35.41
2022-09-28T22:58:59.539Z,35.40
2022-09-28T23:01:25.970Z,35.45
2022-09-28T23:03:52.240Z,35.47
2022-09-28T23:06:18.583Z,35.53
2022-09-28T23:08:44.925Z,35.53
2022-09-28T23:11:11.265Z,35.51
2022-09-28T23:13:37.596Z,35.61
2022-09-28T23:16:03.980Z,35.47
2022-09-28T23:18:30.274Z,35.57
2022-09-28T23:20:56.615Z,35.53
2022-09-28T23:23:22.952Z,35.54
2022-09-28T23:25:49.295Z,35.60
2022-09-28T23:28:15.633Z,35.52
2022-09-28T23:30:41.979Z,35.54
2022-09-28T23:33:08.324Z,35.55
2022-09-28T23:35:34.663Z,35.69
2022-09-28T23:38:00.992Z,35.67
2022-09-28T23:40:27.401Z,35.58
2022-09-28T23:42:53.672Z,35.61
2022-09-28T23:45:20.037Z,35.74
2022-09-28T23:47:46.366Z,35.60
2022-09-28T23:50:12.706Z,35.78
2022-09-28T23:52:39.044Z,35.73
2022-09-28T23:55:05.381Z,35.74
2022-09-28T23:57:31.723Z,35.71
2022-09-28T23:59:58.064Z,35.71
